WZZ120 LIRN-LBSF
Flight info
| Callsign | WZZ120 |
|---|---|
| Flight time | 1h 23m |
| Altitude | 38000 |
| Route | BEDPI DCT MOLUX DCT RAMAP/N0438F390 DCT GINAM DCT NISVA |
| Aircraft | A20N/M-SDE2E3FGHIRWXY/LB1 |
Departure
| Time | 2026-04-30 18:56 |
|---|---|
| Airport | Naples International Airport (LIRN) |
Arrival
| Time | 2026-04-30 20:19 |
|---|---|
| Airport | Sofia Airport (LBSF) |
| Time | Latitude | Longitude | Altitude | Speed | Heading |
|---|---|---|---|---|---|
| 2026-04-30 18:32 | 40.88008 | 14.28382 | 299 ft | 0 kts | 334° |
| 2026-04-30 18:51 | 40.88010 | 14.28381 | 299 ft | 0 kts | 334° |
| 2026-04-30 18:53 | 40.88011 | 14.28380 | 299 ft | 2 kts | 334° |
| 2026-04-30 18:53 | 40.88045 | 14.28357 | 303 ft | 8 kts | 324° |
| 2026-04-30 18:53 | 40.88066 | 14.28281 | 300 ft | 10 kts | 276° |
| 2026-04-30 18:54 | 40.88047 | 14.28194 | 304 ft | 10 kts | 240° |
| 2026-04-30 18:54 | 40.88022 | 14.28108 | 306 ft | 10 kts | 272° |
| 2026-04-30 18:54 | 40.88067 | 14.28048 | 308 ft | 10 kts | 329° |
| 2026-04-30 18:54 | 40.88132 | 14.28083 | 304 ft | 14 kts | 57° |
| 2026-04-30 18:55 | 40.88170 | 14.28163 | 301 ft | 0 kts | 58° |
| 2026-04-30 18:55 | 40.88252 | 14.28339 | 299 ft | 56 kts | 58° |
| 2026-04-30 18:56 | 40.89089 | 14.30095 | 455 ft | 141 kts | 57° |
| 2026-04-30 18:56 | 40.89592 | 14.31136 | 1136 ft | 136 kts | 57° |
| 2026-04-30 18:56 | 40.90131 | 14.32183 | 1711 ft | 140 kts | 55° |
| 2026-04-30 18:57 | 40.91355 | 14.34379 | 3003 ft | 161 kts | 53° |
| 2026-04-30 18:57 | 40.92004 | 14.35629 | 3764 ft | 170 kts | 53° |
| 2026-04-30 18:57 | 40.92711 | 14.36941 | 4458 ft | 183 kts | 51° |
| 2026-04-30 18:58 | 40.94883 | 14.39436 | 5537 ft | 229 kts | 23° |
| 2026-04-30 18:58 | 40.96449 | 14.39865 | 6317 ft | 231 kts | 360° |
| 2026-04-30 18:58 | 40.97941 | 14.39371 | 6377 ft | 220 kts | 332° |
| 2026-04-30 18:59 | 40.98912 | 14.35747 | 5820 ft | 245 kts | 246° |
| 2026-04-30 19:00 | 40.95002 | 14.30938 | 5027 ft | 261 kts | 214° |
| 2026-04-30 19:00 | 40.93506 | 14.29639 | 4911 ft | 251 kts | 212° |
| 2026-04-30 19:00 | 40.90544 | 14.27207 | 5035 ft | 254 kts | 211° |
| 2026-04-30 19:01 | 40.87558 | 14.24883 | 5210 ft | 242 kts | 211° |
| 2026-04-30 19:01 | 40.86093 | 14.23832 | 5321 ft | 243 kts | 202° |
| 2026-04-30 19:02 | 40.82786 | 14.23841 | 5637 ft | 247 kts | 163° |
| 2026-04-30 19:02 | 40.79544 | 14.25240 | 5858 ft | 245 kts | 159° |
| 2026-04-30 19:03 | 40.76321 | 14.26779 | 6122 ft | 246 kts | 159° |
| 2026-04-30 19:03 | 40.73118 | 14.28383 | 6791 ft | 244 kts | 151° |
| 2026-04-30 19:04 | 40.71324 | 14.31948 | 8080 ft | 244 kts | 84° |
| 2026-04-30 19:04 | 40.72161 | 14.36250 | 9729 ft | 246 kts | 70° |
| 2026-04-30 19:05 | 40.72932 | 14.40710 | 11457 ft | 253 kts | 75° |
| 2026-04-30 19:05 | 40.74745 | 14.44269 | 13210 ft | 232 kts | 23° |
| 2026-04-30 19:06 | 40.77637 | 14.46282 | 14670 ft | 240 kts | 22° |
| 2026-04-30 19:06 | 40.79134 | 14.47315 | 15175 ft | 254 kts | 22° |
| 2026-04-30 19:06 | 40.82548 | 14.49688 | 15755 ft | 298 kts | 22° |
| 2026-04-30 19:07 | 40.86444 | 14.52430 | 16300 ft | 340 kts | 23° |
| 2026-04-30 19:07 | 40.88581 | 14.53942 | 16715 ft | 354 kts | 23° |
| 2026-04-30 19:08 | 40.93036 | 14.57105 | 17771 ft | 369 kts | 23° |
| 2026-04-30 19:08 | 40.97594 | 14.60344 | 18800 ft | 375 kts | 22° |
| 2026-04-30 19:08 | 40.99900 | 14.61980 | 19276 ft | 378 kts | 22° |
| 2026-04-30 19:09 | 41.04575 | 14.65295 | 20266 ft | 384 kts | 22° |
| 2026-04-30 19:09 | 41.06963 | 14.66871 | 20777 ft | 383 kts | 17° |
| 2026-04-30 19:09 | 41.09434 | 14.68235 | 21298 ft | 386 kts | 16° |
| 2026-04-30 19:10 | 41.14424 | 14.71017 | 22345 ft | 393 kts | 16° |
| 2026-04-30 19:10 | 41.19501 | 14.73860 | 23437 ft | 399 kts | 16° |
| 2026-04-30 19:11 | 41.22074 | 14.75302 | 23958 ft | 403 kts | 16° |
| 2026-04-30 19:11 | 41.27207 | 14.78417 | 24931 ft | 409 kts | 21° |
| 2026-04-30 19:11 | 41.29587 | 14.80589 | 25405 ft | 423 kts | 34° |
| 2026-04-30 19:12 | 41.31607 | 14.83523 | 25889 ft | 438 kts | 48° |
| 2026-04-30 19:12 | 41.33149 | 14.87086 | 26400 ft | 449 kts | 57° |
| 2026-04-30 19:12 | 41.34562 | 14.90797 | 26903 ft | 451 kts | 56° |
| 2026-04-30 19:13 | 41.37407 | 14.98260 | 27938 ft | 453 kts | 56° |
| 2026-04-30 19:13 | 41.40270 | 15.05734 | 29019 ft | 453 kts | 55° |
| 2026-04-30 19:13 | 41.41701 | 15.09473 | 29609 ft | 453 kts | 55° |
| 2026-04-30 19:14 | 41.43129 | 15.13206 | 30181 ft | 452 kts | 54° |
| 2026-04-30 19:14 | 41.44553 | 15.16936 | 30673 ft | 451 kts | 54° |
| 2026-04-30 19:14 | 41.45971 | 15.20657 | 31161 ft | 450 kts | 55° |
| 2026-04-30 19:14 | 41.47383 | 15.24368 | 31655 ft | 447 kts | 55° |
| 2026-04-30 19:15 | 41.48785 | 15.28061 | 32165 ft | 445 kts | 55° |
| 2026-04-30 19:15 | 41.51557 | 15.35368 | 33199 ft | 438 kts | 55° |
| 2026-04-30 19:15 | 41.52925 | 15.38980 | 33730 ft | 433 kts | 55° |
| 2026-04-30 19:16 | 41.54275 | 15.42550 | 34265 ft | 428 kts | 55° |
| 2026-04-30 19:16 | 41.55607 | 15.46074 | 34725 ft | 423 kts | 56° |
| 2026-04-30 19:16 | 41.58277 | 15.53130 | 35069 ft | 431 kts | 56° |
| 2026-04-30 19:17 | 41.59634 | 15.56724 | 35169 ft | 436 kts | 56° |
| 2026-04-30 19:17 | 41.62401 | 15.64081 | 35212 ft | 451 kts | 56° |
| 2026-04-30 19:17 | 41.63819 | 15.67860 | 35214 ft | 459 kts | 57° |
| 2026-04-30 19:18 | 41.66232 | 15.74309 | 35211 ft | 473 kts | 57° |
| 2026-04-30 19:18 | 41.68215 | 15.79624 | 35209 ft | 483 kts | 57° |
| 2026-04-30 19:19 | 41.71241 | 15.87758 | 35192 ft | 490 kts | 57° |
| 2026-04-30 19:19 | 41.75777 | 16.00002 | 35212 ft | 489 kts | 57° |
| 2026-04-30 19:20 | 41.78787 | 16.08140 | 35189 ft | 491 kts | 57° |
| 2026-04-30 19:21 | 41.83339 | 16.20493 | 35189 ft | 491 kts | 57° |
| 2026-04-30 19:22 | 41.89346 | 16.36881 | 35192 ft | 489 kts | 58° |
| 2026-04-30 19:23 | 41.98314 | 16.61519 | 35186 ft | 490 kts | 58° |
| 2026-04-30 19:24 | 42.02782 | 16.73876 | 35184 ft | 489 kts | 58° |
| 2026-04-30 19:25 | 42.10202 | 16.94513 | 35179 ft | 490 kts | 58° |
| 2026-04-30 19:26 | 42.16117 | 17.11076 | 35183 ft | 490 kts | 58° |
| 2026-04-30 19:27 | 42.20536 | 17.23517 | 35178 ft | 490 kts | 58° |
| 2026-04-30 19:28 | 42.24447 | 17.34572 | 35178 ft | 490 kts | 59° |
| 2026-04-30 19:29 | 42.30307 | 17.51213 | 35180 ft | 489 kts | 59° |
| 2026-04-30 19:30 | 42.36130 | 17.67854 | 35177 ft | 490 kts | 59° |
| 2026-04-30 19:31 | 42.41936 | 17.84544 | 35174 ft | 490 kts | 60° |
| 2026-04-30 19:31 | 42.46258 | 17.97035 | 35164 ft | 488 kts | 60° |
| 2026-04-30 19:32 | 42.49131 | 18.05370 | 35159 ft | 488 kts | 60° |
| 2026-04-30 19:32 | 42.51997 | 18.13709 | 35156 ft | 488 kts | 60° |
| 2026-04-30 19:33 | 42.54859 | 18.22063 | 35155 ft | 488 kts | 60° |
| 2026-04-30 19:33 | 42.57699 | 18.30382 | 35157 ft | 483 kts | 60° |
| 2026-04-30 19:34 | 42.60522 | 18.38667 | 35159 ft | 485 kts | 60° |
| 2026-04-30 19:35 | 42.64759 | 18.51152 | 35176 ft | 486 kts | 60° |
| 2026-04-30 19:35 | 42.67576 | 18.59489 | 35181 ft | 485 kts | 60° |
| 2026-04-30 19:36 | 42.70379 | 18.67811 | 35198 ft | 482 kts | 61° |
| 2026-04-30 19:36 | 42.74559 | 18.80260 | 35041 ft | 483 kts | 61° |
| 2026-04-30 19:37 | 42.77354 | 18.88615 | 35156 ft | 485 kts | 61° |
| 2026-04-30 19:37 | 42.80130 | 18.96949 | 35239 ft | 483 kts | 61° |
| 2026-04-30 19:38 | 42.82895 | 19.05270 | 35246 ft | 481 kts | 61° |
| 2026-04-30 19:38 | 42.85648 | 19.13579 | 35268 ft | 482 kts | 62° |
| 2026-04-30 19:39 | 42.88399 | 19.21907 | 35264 ft | 482 kts | 62° |
| 2026-04-30 19:39 | 42.91143 | 19.30240 | 35286 ft | 482 kts | 62° |
| 2026-04-30 19:40 | 42.93882 | 19.38582 | 35285 ft | 482 kts | 62° |
| 2026-04-30 19:40 | 42.96607 | 19.46910 | 35313 ft | 479 kts | 62° |
| 2026-04-30 19:41 | 42.99305 | 19.55180 | 35306 ft | 480 kts | 62° |
| 2026-04-30 19:41 | 43.02018 | 19.63522 | 35321 ft | 481 kts | 62° |
| 2026-04-30 19:42 | 43.04722 | 19.71867 | 35319 ft | 480 kts | 62° |
| 2026-04-30 19:42 | 43.07423 | 19.80221 | 35320 ft | 480 kts | 62° |
| 2026-04-30 19:43 | 43.10128 | 19.88615 | 35324 ft | 483 kts | 62° |
| 2026-04-30 19:44 | 43.14172 | 20.01219 | 35327 ft | 482 kts | 63° |
| 2026-04-30 19:44 | 43.16860 | 20.09629 | 35317 ft | 482 kts | 63° |
| 2026-04-30 19:45 | 43.19544 | 20.18051 | 35323 ft | 482 kts | 63° |
| 2026-04-30 19:45 | 43.22213 | 20.26454 | 35314 ft | 481 kts | 63° |
| 2026-04-30 19:46 | 43.24877 | 20.34868 | 35311 ft | 481 kts | 63° |
| 2026-04-30 19:46 | 43.27533 | 20.43286 | 35307 ft | 481 kts | 63° |
| 2026-04-30 19:47 | 43.30186 | 20.51716 | 35305 ft | 481 kts | 63° |
| 2026-04-30 19:47 | 43.32830 | 20.60150 | 35304 ft | 480 kts | 63° |
| 2026-04-30 19:48 | 43.35471 | 20.68588 | 35292 ft | 481 kts | 63° |
| 2026-04-30 19:48 | 43.38109 | 20.77035 | 35292 ft | 481 kts | 64° |
| 2026-04-30 19:49 | 43.40507 | 20.85617 | 35292 ft | 485 kts | 75° |
| 2026-04-30 19:49 | 43.40729 | 20.94881 | 35290 ft | 490 kts | 99° |
| 2026-04-30 19:49 | 43.39891 | 20.99429 | 35284 ft | 491 kts | 108° |
| 2026-04-30 19:50 | 43.37668 | 21.08311 | 35286 ft | 491 kts | 109° |
| 2026-04-30 19:50 | 43.35519 | 21.17236 | 35280 ft | 492 kts | 108° |
| 2026-04-30 19:51 | 43.33463 | 21.26203 | 35286 ft | 492 kts | 107° |
| 2026-04-30 19:51 | 43.31421 | 21.35169 | 35288 ft | 492 kts | 107° |
| 2026-04-30 19:52 | 43.30398 | 21.39653 | 35187 ft | 493 kts | 108° |
| 2026-04-30 19:52 | 43.29370 | 21.44134 | 34956 ft | 492 kts | 108° |
| 2026-04-30 19:52 | 43.28341 | 21.48612 | 34723 ft | 491 kts | 108° |
| 2026-04-30 19:52 | 43.27312 | 21.53081 | 34496 ft | 491 kts | 108° |
| 2026-04-30 19:53 | 43.26280 | 21.57554 | 34264 ft | 492 kts | 108° |
| 2026-04-30 19:53 | 43.25261 | 21.61962 | 33997 ft | 491 kts | 108° |
| 2026-04-30 19:53 | 43.24214 | 21.66484 | 33724 ft | 491 kts | 108° |
| 2026-04-30 19:53 | 43.23180 | 21.70938 | 33450 ft | 490 kts | 108° |
| 2026-04-30 19:54 | 43.22157 | 21.75334 | 33191 ft | 490 kts | 108° |
| 2026-04-30 19:54 | 43.21120 | 21.79785 | 32926 ft | 490 kts | 108° |
| 2026-04-30 19:54 | 43.20081 | 21.84233 | 32670 ft | 490 kts | 108° |
| 2026-04-30 19:54 | 43.19041 | 21.88678 | 32407 ft | 490 kts | 108° |
| 2026-04-30 19:55 | 43.18001 | 21.93116 | 32152 ft | 489 kts | 108° |
| 2026-04-30 19:55 | 43.16958 | 21.97557 | 31899 ft | 489 kts | 108° |
| 2026-04-30 19:55 | 43.15914 | 22.01990 | 31646 ft | 489 kts | 108° |
| 2026-04-30 19:55 | 43.14856 | 22.06483 | 31387 ft | 490 kts | 108° |
| 2026-04-30 19:56 | 43.13806 | 22.10927 | 31134 ft | 491 kts | 108° |
| 2026-04-30 19:56 | 43.12754 | 22.15366 | 30884 ft | 489 kts | 108° |
| 2026-04-30 19:56 | 43.11707 | 22.19779 | 30636 ft | 486 kts | 108° |
| 2026-04-30 19:56 | 43.10665 | 22.24166 | 30409 ft | 484 kts | 108° |
| 2026-04-30 19:57 | 43.09624 | 22.28533 | 30128 ft | 481 kts | 108° |
| 2026-04-30 19:57 | 43.08589 | 22.32870 | 29834 ft | 478 kts | 108° |
| 2026-04-30 19:57 | 43.07558 | 22.37184 | 29558 ft | 477 kts | 109° |
| 2026-04-30 19:57 | 43.06528 | 22.41487 | 29273 ft | 475 kts | 109° |
| 2026-04-30 19:58 | 43.05501 | 22.45767 | 28996 ft | 472 kts | 108° |
| 2026-04-30 19:58 | 43.04479 | 22.50015 | 28718 ft | 469 kts | 108° |
| 2026-04-30 19:58 | 43.03460 | 22.54242 | 28443 ft | 467 kts | 108° |
| 2026-04-30 19:58 | 43.02445 | 22.58450 | 28168 ft | 465 kts | 108° |
| 2026-04-30 19:59 | 43.01433 | 22.62636 | 27651 ft | 463 kts | 108° |
| 2026-04-30 19:59 | 43.00437 | 22.66745 | 27097 ft | 460 kts | 108° |
| 2026-04-30 19:59 | 42.98443 | 22.74938 | 25978 ft | 449 kts | 110° |
| 2026-04-30 20:00 | 42.97201 | 22.78818 | 25431 ft | 444 kts | 118° |
| 2026-04-30 20:00 | 42.95579 | 22.82363 | 24887 ft | 438 kts | 127° |
| 2026-04-30 20:00 | 42.93648 | 22.85552 | 24334 ft | 433 kts | 132° |
| 2026-04-30 20:00 | 42.91687 | 22.88649 | 23799 ft | 429 kts | 131° |
| 2026-04-30 20:01 | 42.87852 | 22.94750 | 22686 ft | 418 kts | 131° |
| 2026-04-30 20:01 | 42.85975 | 22.97739 | 22162 ft | 412 kts | 132° |
| 2026-04-30 20:01 | 42.84123 | 23.00681 | 21645 ft | 407 kts | 132° |
| 2026-04-30 20:02 | 42.80476 | 23.06459 | 20611 ft | 398 kts | 131° |
| 2026-04-30 20:02 | 42.78680 | 23.09301 | 20137 ft | 393 kts | 131° |
| 2026-04-30 20:03 | 42.75141 | 23.14889 | 19142 ft | 386 kts | 131° |
| 2026-04-30 20:03 | 42.73390 | 23.17652 | 18639 ft | 384 kts | 131° |
| 2026-04-30 20:03 | 42.71656 | 23.20386 | 18118 ft | 380 kts | 131° |
| 2026-04-30 20:03 | 42.69940 | 23.23091 | 17627 ft | 375 kts | 131° |
| 2026-04-30 20:04 | 42.68242 | 23.25763 | 17139 ft | 371 kts | 131° |
| 2026-04-30 20:04 | 42.66564 | 23.28401 | 16661 ft | 367 kts | 131° |
| 2026-04-30 20:04 | 42.64901 | 23.31012 | 16186 ft | 364 kts | 131° |
| 2026-04-30 20:05 | 42.61987 | 23.36506 | 15249 ft | 356 kts | 111° |
| 2026-04-30 20:05 | 42.61391 | 23.39719 | 14879 ft | 347 kts | 93° |
| 2026-04-30 20:05 | 42.61028 | 23.45992 | 14612 ft | 321 kts | 92° |
| 2026-04-30 20:06 | 42.60846 | 23.48954 | 14509 ft | 309 kts | 92° |
| 2026-04-30 20:06 | 42.60671 | 23.51801 | 14409 ft | 297 kts | 93° |
| 2026-04-30 20:06 | 42.60501 | 23.54543 | 14308 ft | 286 kts | 92° |
| 2026-04-30 20:06 | 42.60337 | 23.57182 | 14159 ft | 277 kts | 92° |
| 2026-04-30 20:07 | 42.60177 | 23.59750 | 13978 ft | 268 kts | 92° |
| 2026-04-30 20:07 | 42.60022 | 23.62214 | 13869 ft | 258 kts | 92° |
| 2026-04-30 20:07 | 42.59710 | 23.67274 | 13566 ft | 273 kts | 92° |
| 2026-04-30 20:08 | 42.59553 | 23.69821 | 13337 ft | 269 kts | 92° |
| 2026-04-30 20:08 | 42.59396 | 23.72347 | 13032 ft | 267 kts | 92° |
| 2026-04-30 20:08 | 42.59241 | 23.74848 | 12712 ft | 265 kts | 92° |
| 2026-04-30 20:08 | 42.59086 | 23.77325 | 12386 ft | 262 kts | 92° |
| 2026-04-30 20:09 | 42.58931 | 23.79780 | 12085 ft | 260 kts | 92° |
| 2026-04-30 20:09 | 42.58776 | 23.82214 | 11766 ft | 258 kts | 92° |
| 2026-04-30 20:09 | 42.58469 | 23.86995 | 11219 ft | 250 kts | 92° |
| 2026-04-30 20:10 | 42.58170 | 23.91626 | 10686 ft | 243 kts | 92° |
| 2026-04-30 20:10 | 42.58251 | 23.93832 | 10445 ft | 233 kts | 68° |
| 2026-04-30 20:10 | 42.59083 | 23.95632 | 10206 ft | 227 kts | 39° |
| 2026-04-30 20:11 | 42.62061 | 23.96848 | 9708 ft | 225 kts | 4° |
| 2026-04-30 20:11 | 42.63607 | 23.96985 | 9460 ft | 220 kts | 358° |
| 2026-04-30 20:11 | 42.65026 | 23.96432 | 9245 ft | 216 kts | 330° |
| 2026-04-30 20:12 | 42.66518 | 23.92758 | 8777 ft | 241 kts | 279° |
| 2026-04-30 20:12 | 42.66648 | 23.90500 | 8516 ft | 238 kts | 278° |
| 2026-04-30 20:12 | 42.66764 | 23.88279 | 8335 ft | 232 kts | 278° |
| 2026-04-30 20:13 | 42.66896 | 23.86044 | 8247 ft | 240 kts | 280° |
| 2026-04-30 20:13 | 42.67089 | 23.83791 | 7847 ft | 241 kts | 281° |
| 2026-04-30 20:13 | 42.67268 | 23.81535 | 7479 ft | 240 kts | 281° |
| 2026-04-30 20:13 | 42.67418 | 23.79277 | 7115 ft | 239 kts | 280° |
| 2026-04-30 20:14 | 42.67551 | 23.77039 | 6782 ft | 236 kts | 280° |
| 2026-04-30 20:14 | 42.67685 | 23.74808 | 6453 ft | 238 kts | 280° |
| 2026-04-30 20:14 | 42.67818 | 23.72571 | 6120 ft | 237 kts | 279° |
| 2026-04-30 20:14 | 42.67907 | 23.71069 | 5885 ft | 236 kts | 279° |
| 2026-04-30 20:15 | 42.68080 | 23.68137 | 5434 ft | 233 kts | 279° |
| 2026-04-30 20:15 | 42.68168 | 23.66662 | 5216 ft | 231 kts | 278° |
| 2026-04-30 20:15 | 42.68296 | 23.64502 | 4897 ft | 228 kts | 278° |
| 2026-04-30 20:15 | 42.68423 | 23.62373 | 4570 ft | 224 kts | 277° |
| 2026-04-30 20:16 | 42.68547 | 23.60284 | 4255 ft | 218 kts | 277° |
| 2026-04-30 20:16 | 42.68663 | 23.58312 | 3951 ft | 202 kts | 277° |
| 2026-04-30 20:16 | 42.68769 | 23.56520 | 3689 ft | 183 kts | 277° |
| 2026-04-30 20:16 | 42.68868 | 23.54860 | 3345 ft | 169 kts | 276° |
| 2026-04-30 20:17 | 42.68958 | 23.53322 | 3114 ft | 158 kts | 277° |
| 2026-04-30 20:17 | 42.69044 | 23.51888 | 2925 ft | 147 kts | 276° |
| 2026-04-30 20:17 | 42.69121 | 23.50570 | 2764 ft | 134 kts | 277° |
| 2026-04-30 20:17 | 42.69197 | 23.49313 | 2602 ft | 135 kts | 276° |
| 2026-04-30 20:18 | 42.69273 | 23.48048 | 2415 ft | 135 kts | 278° |
| 2026-04-30 20:18 | 42.69350 | 23.46769 | 2227 ft | 136 kts | 277° |
| 2026-04-30 20:18 | 42.69426 | 23.45494 | 2065 ft | 135 kts | 278° |
| 2026-04-30 20:18 | 42.69502 | 23.44225 | 1886 ft | 135 kts | 277° |
| 2026-04-30 20:19 | 42.69585 | 23.42980 | 1751 ft | 123 kts | 275° |
| 2026-04-30 20:19 | 42.69636 | 23.42019 | 1748 ft | 71 kts | 273° |
| 2026-04-30 20:19 | 42.69621 | 23.41689 | 1741 ft | 20 kts | 253° |
| 2026-04-30 20:19 | 42.69576 | 23.41539 | 1744 ft | 4 kts | 243° |
| 2026-04-30 20:20 | 42.69574 | 23.41533 | 1745 ft | 4 kts | 243° |
| 2026-04-30 20:20 | 42.69547 | 23.41458 | 1744 ft | 12 kts | 245° |
| 2026-04-30 20:20 | 42.69537 | 23.41429 | 1745 ft | 2 kts | 246° |
| 2026-04-30 20:21 | 42.69522 | 23.41383 | 1739 ft | 10 kts | 246° |
| 2026-04-30 20:21 | 42.69486 | 23.41270 | 1739 ft | 16 kts | 246° |
| 2026-04-30 20:21 | 42.69390 | 23.41196 | 1747 ft | 18 kts | 192° |
| 2026-04-30 20:21 | 42.69258 | 23.41160 | 1747 ft | 20 kts | 192° |
| 2026-04-30 20:22 | 42.69126 | 23.41086 | 1745 ft | 21 kts | 237° |
| 2026-04-30 20:22 | 42.69077 | 23.40892 | 1747 ft | 23 kts | 253° |
| 2026-04-30 20:22 | 42.69068 | 23.40704 | 1747 ft | 5 kts | 287° |
| 2026-04-30 20:22 | 42.69086 | 23.40620 | 1746 ft | 17 kts | 286° |
| 2026-04-30 20:23 | 42.69102 | 23.40545 | 1746 ft | 4 kts | 286° |
| 2026-04-30 20:23 | 42.69119 | 23.40469 | 1746 ft | 12 kts | 287° |
| 2026-04-30 20:23 | 42.69120 | 23.40395 | 1746 ft | 4 kts | 209° |
| 2026-04-30 20:23 | 42.69082 | 23.40381 | 1743 ft | 8 kts | 197° |
| 2026-04-30 20:24 | 42.69064 | 23.40374 | 1746 ft | 1 kts | 196° |
| 2026-04-30 20:24 | 42.69063 | 23.40373 | 1746 ft | 0 kts | 196° |